sensor_id;sensor_type;location;lat;lon;timestamp;temperature;humidity
79010;DHT22;73031;44.726;37.760;2023-11-22T00:00:03;11.81;70.31
79010;DHT22;73031;44.726;37.760;2023-11-22T00:01:05;11.83;70.32
79010;DHT22;73031;44.726;37.760;2023-11-22T00:02:07;11.78;70.38
79010;DHT22;73031;44.726;37.760;2023-11-22T00:03:08;11.82;70.38
79010;DHT22;73031;44.726;37.760;2023-11-22T00:04:09;11.79;70.31
79010;DHT22;73031;44.726;37.760;2023-11-22T00:05:11;11.82;70.33
79010;DHT22;73031;44.726;37.760;2023-11-22T00:06:12;11.82;70.25
79010;DHT22;73031;44.726;37.760;2023-11-22T00:07:13;11.82;70.22
79010;DHT22;73031;44.726;37.760;2023-11-22T00:08:14;11.81;70.22
79010;DHT22;73031;44.726;37.760;2023-11-22T00:09:16;11.83;70.26
79010;DHT22;73031;44.726;37.760;2023-11-22T00:10:17;11.82;70.22
79010;DHT22;73031;44.726;37.760;2023-11-22T00:11:19;11.82;70.24
79010;DHT22;73031;44.726;37.760;2023-11-22T00:12:21;11.83;70.25
79010;DHT22;73031;44.726;37.760;2023-11-22T00:13:22;11.85;70.28
79010;DHT22;73031;44.726;37.760;2023-11-22T00:14:24;11.85;70.25
79010;DHT22;73031;44.726;37.760;2023-11-22T00:15:25;11.82;70.26
79010;DHT22;73031;44.726;37.760;2023-11-22T00:16:27;11.81;70.29
79010;DHT22;73031;44.726;37.760;2023-11-22T00:17:28;11.82;70.33
79010;DHT22;73031;44.726;37.760;2023-11-22T00:18:29;11.81;70.31
79010;DHT22;73031;44.726;37.760;2023-11-22T00:19:31;11.85;70.29
79010;DHT22;73031;44.726;37.760;2023-11-22T00:20:33;11.86;70.33
79010;DHT22;73031;44.726;37.760;2023-11-22T00:21:34;11.85;70.34
79010;DHT22;73031;44.726;37.760;2023-11-22T00:22:36;11.89;70.32
79010;DHT22;73031;44.726;37.760;2023-11-22T00:23:37;11.86;70.35
79010;DHT22;73031;44.726;37.760;2023-11-22T00:24:40;11.86;70.37
79010;DHT22;73031;44.726;37.760;2023-11-22T00:25:41;11.87;70.30
79010;DHT22;73031;44.726;37.760;2023-11-22T00:26:43;11.90;70.30
79010;DHT22;73031;44.726;37.760;2023-11-22T00:27:44;11.90;70.32
79010;DHT22;73031;44.726;37.760;2023-11-22T00:28:45;11.90;70.28
79010;DHT22;73031;44.726;37.760;2023-11-22T00:29:46;11.90;70.33
79010;DHT22;73031;44.726;37.760;2023-11-22T00:30:48;11.90;70.36
79010;DHT22;73031;44.726;37.760;2023-11-22T00:31:50;11.89;70.28
79010;DHT22;73031;44.726;37.760;2023-11-22T00:32:51;11.90;70.32
79010;DHT22;73031;44.726;37.760;2023-11-22T00:33:52;11.93;70.32
79010;DHT22;73031;44.726;37.760;2023-11-22T00:34:53;11.92;70.30
79010;DHT22;73031;44.726;37.760;2023-11-22T00:35:55;11.95;70.22
79010;DHT22;73031;44.726;37.760;2023-11-22T00:36:57;11.92;70.35
79010;DHT22;73031;44.726;37.760;2023-11-22T00:37:59;11.92;70.36
79010;DHT22;73031;44.726;37.760;2023-11-22T00:39:00;11.92;70.46
79010;DHT22;73031;44.726;37.760;2023-11-22T00:40:02;11.93;70.55
79010;DHT22;73031;44.726;37.760;2023-11-22T00:41:11;11.95;70.61
79010;DHT22;73031;44.726;37.760;2023-11-22T00:42:12;11.96;70.50
79010;DHT22;73031;44.726;37.760;2023-11-22T00:43:13;11.97;70.44
79010;DHT22;73031;44.726;37.760;2023-11-22T00:44:15;11.99;70.44
79010;DHT22;73031;44.726;37.760;2023-11-22T00:45:16;11.95;70.44
79010;DHT22;73031;44.726;37.760;2023-11-22T00:46:19;11.96;70.43
79010;DHT22;73031;44.726;37.760;2023-11-22T00:47:20;12.02;70.35
79010;DHT22;73031;44.726;37.760;2023-11-22T00:48:21;12.00;70.52
79010;DHT22;73031;44.726;37.760;2023-11-22T00:49:23;12.00;70.65
79010;DHT22;73031;44.726;37.760;2023-11-22T00:50:25;12.02;70.62
79010;DHT22;73031;44.726;37.760;2023-11-22T00:51:26;12.02;70.42
79010;DHT22;73031;44.726;37.760;2023-11-22T00:52:28;12.02;70.48
79010;DHT22;73031;44.726;37.760;2023-11-22T00:53:29;12.04;70.49
79010;DHT22;73031;44.726;37.760;2023-11-22T00:54:30;12.02;70.51
79010;DHT22;73031;44.726;37.760;2023-11-22T00:55:32;12.04;70.53
79010;DHT22;73031;44.726;37.760;2023-11-22T00:56:33;12.04;70.57
79010;DHT22;73031;44.726;37.760;2023-11-22T00:57:34;12.10;70.65
79010;DHT22;73031;44.726;37.760;2023-11-22T00:58:35;12.12;70.62
79010;DHT22;73031;44.726;37.760;2023-11-22T00:59:37;12.10;70.64
79010;DHT22;73031;44.726;37.760;2023-11-22T01:00:38;12.16;70.61
79010;DHT22;73031;44.726;37.760;2023-11-22T01:01:40;12.17;70.67
79010;DHT22;73031;44.726;37.760;2023-11-22T01:02:42;12.19;70.78
79010;DHT22;73031;44.726;37.760;2023-11-22T01:03:43;12.23;70.57
79010;DHT22;73031;44.726;37.760;2023-11-22T01:04:44;12.26;70.53
79010;DHT22;73031;44.726;37.760;2023-11-22T01:05:46;12.30;70.80
79010;DHT22;73031;44.726;37.760;2023-11-22T01:06:47;12.34;70.83
79010;DHT22;73031;44.726;37.760;2023-11-22T01:07:48;12.36;70.76
79010;DHT22;73031;44.726;37.760;2023-11-22T01:08:50;12.41;70.62
79010;DHT22;73031;44.726;37.760;2023-11-22T01:09:51;12.44;70.61
79010;DHT22;73031;44.726;37.760;2023-11-22T01:10:54;12.49;70.71
79010;DHT22;73031;44.726;37.760;2023-11-22T01:11:55;12.51;70.44
79010;DHT22;73031;44.726;37.760;2023-11-22T01:12:56;12.58;70.47
79010;DHT22;73031;44.726;37.760;2023-11-22T01:13:58;12.61;70.84
79010;DHT22;73031;44.726;37.760;2023-11-22T01:14:59;12.62;70.31
79010;DHT22;73031;44.726;37.760;2023-11-22T01:16:00;12.68;70.48
79010;DHT22;73031;44.726;37.760;2023-11-22T01:17:02;12.68;70.34
79010;DHT22;73031;44.726;37.760;2023-11-22T01:18:04;12.72;70.41
79010;DHT22;73031;44.726;37.760;2023-11-22T01:19:05;12.75;70.29
79010;DHT22;73031;44.726;37.760;2023-11-22T01:20:07;12.79;70.31
79010;DHT22;73031;44.726;37.760;2023-11-22T01:21:12;12.81;70.26
79010;DHT22;73031;44.726;37.760;2023-11-22T01:22:13;12.83;70.14
79010;DHT22;73031;44.726;37.760;2023-11-22T01:23:15;12.82;70.46
79010;DHT22;73031;44.726;37.760;2023-11-22T01:24:16;12.88;70.33
79010;DHT22;73031;44.726;37.760;2023-11-22T01:25:17;12.88;70.28
79010;DHT22;73031;44.726;37.760;2023-11-22T01:26:20;12.91;70.39
79010;DHT22;73031;44.726;37.760;2023-11-22T01:27:21;12.92;70.18
79010;DHT22;73031;44.726;37.760;2023-11-22T01:28:22;12.96;70.18
79010;DHT22;73031;44.726;37.760;2023-11-22T01:29:24;12.97;70.23
79010;DHT22;73031;44.726;37.760;2023-11-22T01:30:25;12.99;70.51
79010;DHT22;73031;44.726;37.760;2023-11-22T01:31:29;12.99;70.29
79010;DHT22;73031;44.726;37.760;2023-11-22T01:32:30;13.00;70.30
79010;DHT22;73031;44.726;37.760;2023-11-22T01:33:31;13.03;70.15
79010;DHT22;73031;44.726;37.760;2023-11-22T01:34:35;13.07;70.51
79010;DHT22;73031;44.726;37.760;2023-11-22T01:35:37;13.06;70.26
79010;DHT22;73031;44.726;37.760;2023-11-22T01:36:43;13.11;70.15
79010;DHT22;73031;44.726;37.760;2023-11-22T01:37:44;13.14;70.06
79010;DHT22;73031;44.726;37.760;2023-11-22T01:38:46;13.16;69.97
79010;DHT22;73031;44.726;37.760;2023-11-22T01:39:47;13.21;69.85
79010;DHT22;73031;44.726;37.760;2023-11-22T01:40:51;13.23;69.79
79010;DHT22;73031;44.726;37.760;2023-11-22T01:41:52;13.26;69.84
79010;DHT22;73031;44.726;37.760;2023-11-22T01:42:55;13.26;69.96
79010;DHT22;73031;44.726;37.760;2023-11-22T01:43:56;13.28;69.99
79010;DHT22;73031;44.726;37.760;2023-11-22T01:44:58;13.28;70.19
79010;DHT22;73031;44.726;37.760;2023-11-22T01:46:00;13.27;70.33
79010;DHT22;73031;44.726;37.760;2023-11-22T01:47:01;13.28;70.25
79010;DHT22;73031;44.726;37.760;2023-11-22T01:48:04;13.31;70.25
79010;DHT22;73031;44.726;37.760;2023-11-22T01:49:05;13.31;70.27
79010;DHT22;73031;44.726;37.760;2023-11-22T01:50:07;13.31;70.32
79010;DHT22;73031;44.726;37.760;2023-11-22T01:51:09;13.30;70.46
79010;DHT22;73031;44.726;37.760;2023-11-22T01:52:10;13.34;70.36
79010;DHT22;73031;44.726;37.760;2023-11-22T01:53:12;13.34;70.49
79010;DHT22;73031;44.726;37.760;2023-11-22T01:54:14;13.38;70.30
79010;DHT22;73031;44.726;37.760;2023-11-22T01:55:16;13.38;70.47
79010;DHT22;73031;44.726;37.760;2023-11-22T01:56:43;13.40;70.41
79010;DHT22;73031;44.726;37.760;2023-11-22T01:57:45;13.41;70.24
79010;DHT22;73031;44.726;37.760;2023-11-22T01:58:46;13.41;70.49
79010;DHT22;73031;44.726;37.760;2023-11-22T01:59:48;13.44;70.47
79010;DHT22;73031;44.726;37.760;2023-11-22T02:00:50;13.46;70.23
79010;DHT22;73031;44.726;37.760;2023-11-22T02:01:53;13.50;70.24
79010;DHT22;73031;44.726;37.760;2023-11-22T02:02:55;13.53;70.34
79010;DHT22;73031;44.726;37.760;2023-11-22T02:03:57;13.50;70.33
79010;DHT22;73031;44.726;37.760;2023-11-22T02:04:58;13.53;70.64
79010;DHT22;73031;44.726;37.760;2023-11-22T02:05:59;13.53;70.54
79010;DHT22;73031;44.726;37.760;2023-11-22T02:07:01;13.53;70.52
79010;DHT22;73031;44.726;37.760;2023-11-22T02:08:03;13.54;70.36
79010;DHT22;73031;44.726;37.760;2023-11-22T02:09:04;13.57;70.50
79010;DHT22;73031;44.726;37.760;2023-11-22T02:10:07;13.57;70.53
79010;DHT22;73031;44.726;37.760;2023-11-22T02:11:08;13.58;70.38
79010;DHT22;73031;44.726;37.760;2023-11-22T02:12:10;13.58;70.35
79010;DHT22;73031;44.726;37.760;2023-11-22T02:13:11;13.62;70.43
79010;DHT22;73031;44.726;37.760;2023-11-22T02:14:12;13.65;70.41
79010;DHT22;73031;44.726;37.760;2023-11-22T02:15:13;13.66;70.46
79010;DHT22;73031;44.726;37.760;2023-11-22T02:16:15;13.66;70.95
79010;DHT22;73031;44.726;37.760;2023-11-22T02:17:17;13.68;70.62
79010;DHT22;73031;44.726;37.760;2023-11-22T02:18:19;13.69;71.35
79010;DHT22;73031;44.726;37.760;2023-11-22T02:19:20;13.68;71.22
79010;DHT22;73031;44.726;37.760;2023-11-22T02:20:21;13.69;70.73
79010;DHT22;73031;44.726;37.760;2023-11-22T02:21:23;13.72;70.71
79010;DHT22;73031;44.726;37.760;2023-11-22T02:22:24;13.76;70.99
79010;DHT22;73031;44.726;37.760;2023-11-22T02:23:25;13.79;70.51
79010;DHT22;73031;44.726;37.760;2023-11-22T02:24:27;13.81;70.53
79010;DHT22;73031;44.726;37.760;2023-11-22T02:25:28;13.86;70.46
79010;DHT22;73031;44.726;37.760;2023-11-22T02:26:29;13.87;70.42
79010;DHT22;73031;44.726;37.760;2023-11-22T02:27:32;13.87;70.46
79010;DHT22;73031;44.726;37.760;2023-11-22T02:28:33;13.93;70.43
79010;DHT22;73031;44.726;37.760;2023-11-22T02:29:34;13.93;70.24
79010;DHT22;73031;44.726;37.760;2023-11-22T02:30:36;13.96;70.12
79010;DHT22;73031;44.726;37.760;2023-11-22T02:31:37;13.99;70.63
79010;DHT22;73031;44.726;37.760;2023-11-22T02:32:38;14.00;70.32
79010;DHT22;73031;44.726;37.760;2023-11-22T02:33:42;14.03;70.18
79010;DHT22;73031;44.726;37.760;2023-11-22T02:34:44;14.02;70.16
79010;DHT22;73031;44.726;37.760;2023-11-22T02:35:47;14.05;70.64
79010;DHT22;73031;44.726;37.760;2023-11-22T02:36:48;14.05;70.28
79010;DHT22;73031;44.726;37.760;2023-11-22T02:37:49;14.10;70.09
79010;DHT22;73031;44.726;37.760;2023-11-22T02:38:51;14.12;70.17
79010;DHT22;73031;44.726;37.760;2023-11-22T02:40:05;14.17;70.08
79010;DHT22;73031;44.726;37.760;2023-11-22T02:41:06;14.20;69.71
79010;DHT22;73031;44.726;37.760;2023-11-22T02:42:09;14.19;70.06
79010;DHT22;73031;44.726;37.760;2023-11-22T02:43:11;14.23;69.74
79010;DHT22;73031;44.726;37.760;2023-11-22T02:44:12;14.26;70.15
79010;DHT22;73031;44.726;37.760;2023-11-22T02:45:19;14.26;70.30
79010;DHT22;73031;44.726;37.760;2023-11-22T02:46:21;14.27;69.88
79010;DHT22;73031;44.726;37.760;2023-11-22T02:47:22;14.27;69.75
79010;DHT22;73031;44.726;37.760;2023-11-22T02:48:24;14.28;69.94
79010;DHT22;73031;44.726;37.760;2023-11-22T02:49:25;14.30;69.96
79010;DHT22;73031;44.726;37.760;2023-11-22T02:50:26;14.31;69.62
79010;DHT22;73031;44.726;37.760;2023-11-22T02:51:28;14.37;69.84
79010;DHT22;73031;44.726;37.760;2023-11-22T02:52:29;14.38;69.62
79010;DHT22;73031;44.726;37.760;2023-11-22T02:53:30;14.41;69.72
79010;DHT22;73031;44.726;37.760;2023-11-22T02:54:31;14.41;69.64
79010;DHT22;73031;44.726;37.760;2023-11-22T02:55:32;14.41;69.88
79010;DHT22;73031;44.726;37.760;2023-11-22T02:56:33;14.45;69.81
79010;DHT22;73031;44.726;37.760;2023-11-22T02:57:34;14.45;70.84
79010;DHT22;73031;44.726;37.760;2023-11-22T02:58:35;14.45;70.61
79010;DHT22;73031;44.726;37.760;2023-11-22T02:59:36;14.48;69.95
79010;DHT22;73031;44.726;37.760;2023-11-22T03:00:39;14.48;69.97
79010;DHT22;73031;44.726;37.760;2023-11-22T03:01:40;14.51;70.53
79010;DHT22;73031;44.726;37.760;2023-11-22T03:02:43;14.51;70.32
79010;DHT22;73031;44.726;37.760;2023-11-22T03:03:45;14.51;70.56
79010;DHT22;73031;44.726;37.760;2023-11-22T03:04:46;14.54;70.11
79010;DHT22;73031;44.726;37.760;2023-11-22T03:05:47;14.55;70.47
79010;DHT22;73031;44.726;37.760;2023-11-22T03:06:49;14.57;70.20
79010;DHT22;73031;44.726;37.760;2023-11-22T03:07:50;14.57;70.41
79010;DHT22;73031;44.726;37.760;2023-11-22T03:08:51;14.58;70.09
79010;DHT22;73031;44.726;37.760;2023-11-22T03:09:53;14.60;69.70
79010;DHT22;73031;44.726;37.760;2023-11-22T03:10:54;14.64;69.88
79010;DHT22;73031;44.726;37.760;2023-11-22T03:11:56;14.61;69.96
79010;DHT22;73031;44.726;37.760;2023-11-22T03:12:57;14.68;70.55
79010;DHT22;73031;44.726;37.760;2023-11-22T03:13:58;14.68;70.15
79010;DHT22;73031;44.726;37.760;2023-11-22T03:14:59;14.68;69.76
79010;DHT22;73031;44.726;37.760;2023-11-22T03:16:02;14.71;69.38
79010;DHT22;73031;44.726;37.760;2023-11-22T03:17:05;14.74;69.30
79010;DHT22;73031;44.726;37.760;2023-11-22T03:18:06;14.75;69.45
79010;DHT22;73031;44.726;37.760;2023-11-22T03:19:07;14.76;69.29
79010;DHT22;73031;44.726;37.760;2023-11-22T03:20:08;14.78;69.18
79010;DHT22;73031;44.726;37.760;2023-11-22T03:21:11;14.79;69.29
79010;DHT22;73031;44.726;37.760;2023-11-22T03:22:12;14.81;69.71
79010;DHT22;73031;44.726;37.760;2023-11-22T03:23:13;14.82;69.09
79010;DHT22;73031;44.726;37.760;2023-11-22T03:24:17;14.83;69.34
79010;DHT22;73031;44.726;37.760;2023-11-22T03:25:18;14.85;69.11
79010;DHT22;73031;44.726;37.760;2023-11-22T03:26:19;14.85;69.36
79010;DHT22;73031;44.726;37.760;2023-11-22T03:27:20;14.86;69.74
79010;DHT22;73031;44.726;37.760;2023-11-22T03:28:24;14.88;69.04
79010;DHT22;73031;44.726;37.760;2023-11-22T03:29:25;14.88;68.85
79010;DHT22;73031;44.726;37.760;2023-11-22T03:30:26;14.91;68.82
79010;DHT22;73031;44.726;37.760;2023-11-22T03:31:28;14.98;70.97
79010;DHT22;73031;44.726;37.760;2023-11-22T03:32:29;15.14;70.97
79010;DHT22;73031;44.726;37.760;2023-11-22T03:33:30;15.30;69.80
79010;DHT22;73031;44.726;37.760;2023-11-22T03:34:31;15.43;69.86
79010;DHT22;73031;44.726;37.760;2023-11-22T03:35:32;15.53;69.62
79010;DHT22;73031;44.726;37.760;2023-11-22T03:36:33;15.57;68.39
79010;DHT22;73031;44.726;37.760;2023-11-22T03:37:34;15.61;68.24
79010;DHT22;73031;44.726;37.760;2023-11-22T03:38:35;15.66;68.35
79010;DHT22;73031;44.726;37.760;2023-11-22T03:39:37;15.75;68.16
79010;DHT22;73031;44.726;37.760;2023-11-22T03:40:38;15.79;68.40
79010;DHT22;73031;44.726;37.760;2023-11-22T03:41:39;15.90;68.25
79010;DHT22;73031;44.726;37.760;2023-11-22T03:42:41;15.90;67.62
79010;DHT22;73031;44.726;37.760;2023-11-22T03:43:42;15.92;67.43
79010;DHT22;73031;44.726;37.760;2023-11-22T03:44:43;16.02;67.77
79010;DHT22;73031;44.726;37.760;2023-11-22T03:45:45;16.06;67.43
79010;DHT22;73031;44.726;37.760;2023-11-22T03:46:46;16.12;68.00
79010;DHT22;73031;44.726;37.760;2023-11-22T03:47:47;16.20;67.03
79010;DHT22;73031;44.726;37.760;2023-11-22T03:48:48;16.23;66.75
79010;DHT22;73031;44.726;37.760;2023-11-22T03:49:49;16.27;66.31
79010;DHT22;73031;44.726;37.760;2023-11-22T03:50:50;16.28;66.90
79010;DHT22;73031;44.726;37.760;2023-11-22T03:51:51;16.24;66.02
79010;DHT22;73031;44.726;37.760;2023-11-22T03:52:52;16.20;65.04
79010;DHT22;73031;44.726;37.760;2023-11-22T03:53:54;16.10;65.20
79010;DHT22;73031;44.726;37.760;2023-11-22T03:54:55;16.02;65.40
79010;DHT22;73031;44.726;37.760;2023-11-22T03:55:59;15.95;65.92
79010;DHT22;73031;44.726;37.760;2023-11-22T03:57:00;15.90;66.25
79010;DHT22;73031;44.726;37.760;2023-11-22T03:58:02;15.83;66.79
79010;DHT22;73031;44.726;37.760;2023-11-22T03:59:03;15.77;66.84
79010;DHT22;73031;44.726;37.760;2023-11-22T04:00:05;15.72;67.13
79010;DHT22;73031;44.726;37.760;2023-11-22T04:01:07;15.69;67.37
79010;DHT22;73031;44.726;37.760;2023-11-22T04:02:08;15.64;67.53
79010;DHT22;73031;44.726;37.760;2023-11-22T04:03:09;15.64;67.57
79010;DHT22;73031;44.726;37.760;2023-11-22T04:04:10;15.59;67.91
79010;DHT22;73031;44.726;37.760;2023-11-22T04:05:11;15.51;68.14
79010;DHT22;73031;44.726;37.760;2023-11-22T04:06:13;15.48;68.16
79010;DHT22;73031;44.726;37.760;2023-11-22T04:07:14;15.44;68.15
79010;DHT22;73031;44.726;37.760;2023-11-22T04:08:15;15.38;67.93
79010;DHT22;73031;44.726;37.760;2023-11-22T04:09:16;15.26;66.64
79010;DHT22;73031;44.726;37.760;2023-11-22T04:10:20;15.16;66.88
79010;DHT22;73031;44.726;37.760;2023-11-22T04:11:22;15.07;67.34
79010;DHT22;73031;44.726;37.760;2023-11-22T04:12:23;15.02;66.86
79010;DHT22;73031;44.726;37.760;2023-11-22T04:13:25;14.98;66.75
79010;DHT22;73031;44.726;37.760;2023-11-22T04:14:26;14.92;66.53
79010;DHT22;73031;44.726;37.760;2023-11-22T04:15:30;14.83;66.80
79010;DHT22;73031;44.726;37.760;2023-11-22T04:16:32;14.79;67.61
79010;DHT22;73031;44.726;37.760;2023-11-22T04:17:33;14.79;67.38
79010;DHT22;73031;44.726;37.760;2023-11-22T04:18:35;14.76;67.62
79010;DHT22;73031;44.726;37.760;2023-11-22T04:19:38;14.74;68.04
79010;DHT22;73031;44.726;37.760;2023-11-22T04:20:39;14.74;67.65
79010;DHT22;73031;44.726;37.760;2023-11-22T04:21:40;14.71;67.35
79010;DHT22;73031;44.726;37.760;2023-11-22T04:22:43;14.67;68.38
79010;DHT22;73031;44.726;37.760;2023-11-22T04:23:47;14.67;68.75
79010;DHT22;73031;44.726;37.760;2023-11-22T04:24:48;14.67;67.60
79010;DHT22;73031;44.726;37.760;2023-11-22T04:25:49;14.62;67.71
79010;DHT22;73031;44.726;37.760;2023-11-22T04:26:50;14.62;68.54
79010;DHT22;73031;44.726;37.760;2023-11-22T04:27:51;14.62;68.45
79010;DHT22;73031;44.726;37.760;2023-11-22T04:28:52;14.64;68.57
79010;DHT22;73031;44.726;37.760;2023-11-22T04:29:53;14.62;67.87
79010;DHT22;73031;44.726;37.760;2023-11-22T04:30:56;14.60;68.42
79010;DHT22;73031;44.726;37.760;2023-11-22T04:31:57;14.61;68.75
79010;DHT22;73031;44.726;37.760;2023-11-22T04:32:58;14.62;67.82
79010;DHT22;73031;44.726;37.760;2023-11-22T04:34:00;14.60;68.82
79010;DHT22;73031;44.726;37.760;2023-11-22T04:35:02;14.60;69.60
79010;DHT22;73031;44.726;37.760;2023-11-22T04:36:06;14.64;68.59
79010;DHT22;73031;44.726;37.760;2023-11-22T04:37:07;14.61;68.89
79010;DHT22;73031;44.726;37.760;2023-11-22T04:38:08;14.64;69.52
79010;DHT22;73031;44.726;37.760;2023-11-22T04:39:09;14.65;69.69
79010;DHT22;73031;44.726;37.760;2023-11-22T04:40:11;14.65;69.27
79010;DHT22;73031;44.726;37.760;2023-11-22T04:41:12;14.65;69.54
79010;DHT22;73031;44.726;37.760;2023-11-22T04:42:13;14.65;69.35
79010;DHT22;73031;44.726;37.760;2023-11-22T04:43:14;14.65;68.08
79010;DHT22;73031;44.726;37.760;2023-11-22T04:44:15;14.68;68.92
79010;DHT22;73031;44.726;37.760;2023-11-22T04:45:16;14.68;69.21
79010;DHT22;73031;44.726;37.760;2023-11-22T04:46:17;14.67;68.94
79010;DHT22;73031;44.726;37.760;2023-11-22T04:47:18;14.69;69.68
79010;DHT22;73031;44.726;37.760;2023-11-22T04:48:19;14.69;69.85
79010;DHT22;73031;44.726;37.760;2023-11-22T04:49:20;14.71;69.68
79010;DHT22;73031;44.726;37.760;2023-11-22T04:50:21;14.72;68.98
79010;DHT22;73031;44.726;37.760;2023-11-22T04:51:24;14.72;68.98
79010;DHT22;73031;44.726;37.760;2023-11-22T04:52:26;14.72;69.18
79010;DHT22;73031;44.726;37.760;2023-11-22T04:53:27;14.72;69.73
79010;DHT22;73031;44.726;37.760;2023-11-22T04:54:28;14.71;69.86
79010;DHT22;73031;44.726;37.760;2023-11-22T04:55:29;14.74;69.91
79010;DHT22;73031;44.726;37.760;2023-11-22T04:56:30;14.75;69.52
79010;DHT22;73031;44.726;37.760;2023-11-22T04:57:31;14.76;69.59
79010;DHT22;73031;44.726;37.760;2023-11-22T04:58:33;14.78;69.04
79010;DHT22;73031;44.726;37.760;2023-11-22T04:59:34;14.74;68.86
79010;DHT22;73031;44.726;37.760;2023-11-22T05:00:35;14.76;69.89
79010;DHT22;73031;44.726;37.760;2023-11-22T05:01:36;14.76;68.56
79010;DHT22;73031;44.726;37.760;2023-11-22T05:02:37;14.78;69.37
79010;DHT22;73031;44.726;37.760;2023-11-22T05:03:39;14.78;69.86
79010;DHT22;73031;44.726;37.760;2023-11-22T05:04:40;14.81;70.05
79010;DHT22;73031;44.726;37.760;2023-11-22T05:05:41;14.82;70.10
79010;DHT22;73031;44.726;37.760;2023-11-22T05:06:42;14.81;69.68
79010;DHT22;73031;44.726;37.760;2023-11-22T05:07:44;14.83;68.90
79010;DHT22;73031;44.726;37.760;2023-11-22T05:08:45;14.81;69.20
79010;DHT22;73031;44.726;37.760;2023-11-22T05:09:46;14.83;69.36
79010;DHT22;73031;44.726;37.760;2023-11-22T05:10:47;14.81;69.35
79010;DHT22;73031;44.726;37.760;2023-11-22T05:11:48;14.85;69.92
79010;DHT22;73031;44.726;37.760;2023-11-22T05:12:49;14.86;71.68
79010;DHT22;73031;44.726;37.760;2023-11-22T05:13:50;14.91;71.67
79010;DHT22;73031;44.726;37.760;2023-11-22T05:14:51;14.93;71.22
79010;DHT22;73031;44.726;37.760;2023-11-22T05:15:53;14.99;69.81
79010;DHT22;73031;44.726;37.760;2023-11-22T05:16:54;14.99;70.87
79010;DHT22;73031;44.726;37.760;2023-11-22T05:17:57;15.02;70.27
79010;DHT22;73031;44.726;37.760;2023-11-22T05:18:58;15.04;70.91
79010;DHT22;73031;44.726;37.760;2023-11-22T05:19:59;15.06;69.56
79010;DHT22;73031;44.726;37.760;2023-11-22T05:21:00;15.10;69.99
79010;DHT22;73031;44.726;37.760;2023-11-22T05:22:01;15.09;69.36
79010;DHT22;73031;44.726;37.760;2023-11-22T05:23:03;15.11;68.73
79010;DHT22;73031;44.726;37.760;2023-11-22T05:24:06;15.10;69.17
79010;DHT22;73031;44.726;37.760;2023-11-22T05:25:08;15.14;69.78
79010;DHT22;73031;44.726;37.760;2023-11-22T05:26:09;15.16;69.61
79010;DHT22;73031;44.726;37.760;2023-11-22T05:27:10;15.16;69.34
79010;DHT22;73031;44.726;37.760;2023-11-22T05:28:11;15.16;68.60
79010;DHT22;73031;44.726;37.760;2023-11-22T05:29:13;15.17;70.39
79010;DHT22;73031;44.726;37.760;2023-11-22T05:30:14;15.17;68.86
79010;DHT22;73031;44.726;37.760;2023-11-22T05:31:16;15.20;68.87
79010;DHT22;73031;44.726;37.760;2023-11-22T05:32:17;15.19;68.43
79010;DHT22;73031;44.726;37.760;2023-11-22T05:33:18;15.20;68.48
79010;DHT22;73031;44.726;37.760;2023-11-22T05:34:19;15.23;70.03
79010;DHT22;73031;44.726;37.760;2023-11-22T05:35:20;15.23;69.39
79010;DHT22;73031;44.726;37.760;2023-11-22T05:36:21;15.23;69.86
79010;DHT22;73031;44.726;37.760;2023-11-22T05:37:22;15.24;69.61
79010;DHT22;73031;44.726;37.760;2023-11-22T05:38:23;15.23;69.89
79010;DHT22;73031;44.726;37.760;2023-11-22T05:39:24;15.26;68.84
79010;DHT22;73031;44.726;37.760;2023-11-22T05:40:25;15.26;69.65
79010;DHT22;73031;44.726;37.760;2023-11-22T05:41:26;15.30;69.01
79010;DHT22;73031;44.726;37.760;2023-11-22T05:42:27;15.28;68.98
79010;DHT22;73031;44.726;37.760;2023-11-22T05:43:29;15.28;69.96
79010;DHT22;73031;44.726;37.760;2023-11-22T05:44:31;15.30;69.25
79010;DHT22;73031;44.726;37.760;2023-11-22T05:45:32;15.30;69.97
79010;DHT22;73031;44.726;37.760;2023-11-22T05:46:33;15.30;68.68
79010;DHT22;73031;44.726;37.760;2023-11-22T05:47:35;15.31;68.72
79010;DHT22;73031;44.726;37.760;2023-11-22T05:48:36;15.33;68.96
79010;DHT22;73031;44.726;37.760;2023-11-22T05:49:37;15.34;68.99
79010;DHT22;73031;44.726;37.760;2023-11-22T05:50:38;15.34;69.46
79010;DHT22;73031;44.726;37.760;2023-11-22T05:51:39;15.34;69.68
79010;DHT22;73031;44.726;37.760;2023-11-22T05:52:40;15.38;69.79
79010;DHT22;73031;44.726;37.760;2023-11-22T05:53:41;15.40;69.10
79010;DHT22;73031;44.726;37.760;2023-11-22T05:54:42;15.36;68.82
79010;DHT22;73031;44.726;37.760;2023-11-22T05:55:43;15.38;68.35
79010;DHT22;73031;44.726;37.760;2023-11-22T05:56:44;15.40;67.95
79010;DHT22;73031;44.726;37.760;2023-11-22T05:57:45;15.41;68.32
79010;DHT22;73031;44.726;37.760;2023-11-22T05:58:46;15.41;68.11
79010;DHT22;73031;44.726;37.760;2023-11-22T05:59:47;15.44;68.66
79010;DHT22;73031;44.726;37.760;2023-11-22T06:00:48;15.41;68.16
79010;DHT22;73031;44.726;37.760;2023-11-22T06:01:49;15.44;67.98
79010;DHT22;73031;44.726;37.760;2023-11-22T06:02:50;15.44;68.05
79010;DHT22;73031;44.726;37.760;2023-11-22T06:03:53;15.47;67.73
79010;DHT22;73031;44.726;37.760;2023-11-22T06:04:54;15.51;67.98
79010;DHT22;73031;44.726;37.760;2023-11-22T06:05:55;15.48;67.72
79010;DHT22;73031;44.726;37.760;2023-11-22T06:06:58;15.47;67.67
79010;DHT22;73031;44.726;37.760;2023-11-22T06:07:59;15.50;67.58
79010;DHT22;73031;44.726;37.760;2023-11-22T06:09:00;15.51;67.84
79010;DHT22;73031;44.726;37.760;2023-11-22T06:10:01;15.48;67.99
79010;DHT22;73031;44.726;37.760;2023-11-22T06:11:03;15.51;67.79
79010;DHT22;73031;44.726;37.760;2023-11-22T06:12:04;15.50;67.78
79010;DHT22;73031;44.726;37.760;2023-11-22T06:13:06;15.51;68.19
79010;DHT22;73031;44.726;37.760;2023-11-22T06:14:07;15.50;67.95
79010;DHT22;73031;44.726;37.760;2023-11-22T06:15:08;15.53;67.65
79010;DHT22;73031;44.726;37.760;2023-11-22T06:16:10;15.55;67.56
79010;DHT22;73031;44.726;37.760;2023-11-22T06:17:11;15.54;67.62
79010;DHT22;73031;44.726;37.760;2023-11-22T06:18:12;15.53;67.79
79010;DHT22;73031;44.726;37.760;2023-11-22T06:19:14;15.54;68.42
79010;DHT22;73031;44.726;37.760;2023-11-22T06:20:16;15.53;68.49
79010;DHT22;73031;44.726;37.760;2023-11-22T06:21:17;15.53;68.48
79010;DHT22;73031;44.726;37.760;2023-11-22T06:22:19;15.57;67.72